sensor_id;sensor_type;location;lat;lon;timestamp;P1;durP1;ratioP1;P2;durP2;ratioP2
9657;SDS011;4867;48.112;11.622;2023-10-19T00:00:48;24.67;;;22.03;;
9657;SDS011;4867;48.112;11.622;2023-10-19T00:03:17;24.70;;;22.23;;
9657;SDS011;4867;48.112;11.622;2023-10-19T00:05:46;23.17;;;20.80;;
9657;SDS011;4867;48.112;11.622;2023-10-19T00:08:13;22.03;;;19.93;;
9657;SDS011;4867;48.112;11.622;2023-10-19T00:10:48;24.90;;;21.77;;
9657;SDS011;4867;48.112;11.622;2023-10-19T00:13:28;26.93;;;24.07;;
9657;SDS011;4867;48.112;11.622;2023-10-19T00:15:57;25.77;;;21.53;;
9657;SDS011;4867;48.112;11.622;2023-10-19T00:18:24;23.13;;;20.87;;
9657;SDS011;4867;48.112;11.622;2023-10-19T00:20:52;25.00;;;22.37;;
9657;SDS011;4867;48.112;11.622;2023-10-19T00:23:26;26.63;;;23.83;;
9657;SDS011;4867;48.112;11.622;2023-10-19T00:25:58;24.60;;;22.20;;
9657;SDS011;4867;48.112;11.622;2023-10-19T00:28:26;24.00;;;21.70;;
9657;SDS011;4867;48.112;11.622;2023-10-19T00:30:54;24.93;;;22.40;;
9657;SDS011;4867;48.112;11.622;2023-10-19T00:33:30;25.70;;;23.10;;
9657;SDS011;4867;48.112;11.622;2023-10-19T00:35:59;24.17;;;21.77;;
9657;SDS011;4867;48.112;11.622;2023-10-19T00:38:33;25.87;;;22.70;;
9657;SDS011;4867;48.112;11.622;2023-10-19T00:41:01;27.00;;;24.30;;
9657;SDS011;4867;48.112;11.622;2023-10-19T00:43:39;25.90;;;22.83;;
9657;SDS011;4867;48.112;11.622;2023-10-19T00:48:49;25.83;;;23.10;;
9657;SDS011;4867;48.112;11.622;2023-10-19T00:51:22;25.47;;;22.77;;
9657;SDS011;4867;48.112;11.622;2023-10-19T00:54:05;24.73;;;22.13;;
9657;SDS011;4867;48.112;11.622;2023-10-19T00:56:41;25.80;;;23.20;;
9657;SDS011;4867;48.112;11.622;2023-10-19T00:59:17;26.37;;;23.57;;
9657;SDS011;4867;48.112;11.622;2023-10-19T01:01:56;26.47;;;23.87;;
9657;SDS011;4867;48.112;11.622;2023-10-19T01:04:53;25.70;;;23.07;;
9657;SDS011;4867;48.112;11.622;2023-10-19T01:07:34;26.03;;;23.33;;
9657;SDS011;4867;48.112;11.622;2023-10-19T01:10:07;25.90;;;22.87;;
9657;SDS011;4867;48.112;11.622;2023-10-19T01:12:35;26.43;;;23.70;;
9657;SDS011;4867;48.112;11.622;2023-10-19T01:15:14;28.43;;;25.43;;
9657;SDS011;4867;48.112;11.622;2023-10-19T01:17:46;23.43;;;21.10;;
9657;SDS011;4867;48.112;11.622;2023-10-19T01:20:21;24.53;;;22.03;;
9657;SDS011;4867;48.112;11.622;2023-10-19T01:25:48;25.07;;;22.60;;
9657;SDS011;4867;48.112;11.622;2023-10-19T01:28:24;27.67;;;24.87;;
9657;SDS011;4867;48.112;11.622;2023-10-19T01:30:55;28.37;;;23.53;;
9657;SDS011;4867;48.112;11.622;2023-10-19T01:33:23;29.40;;;25.80;;
9657;SDS011;4867;48.112;11.622;2023-10-19T01:35:51;24.10;;;21.73;;
9657;SDS011;4867;48.112;11.622;2023-10-19T01:38:38;23.07;;;20.63;;
9657;SDS011;4867;48.112;11.622;2023-10-19T01:41:06;24.77;;;22.13;;
9657;SDS011;4867;48.112;11.622;2023-10-19T01:43:45;26.30;;;23.37;;
9657;SDS011;4867;48.112;11.622;2023-10-19T01:46:20;24.17;;;21.73;;
9657;SDS011;4867;48.112;11.622;2023-10-19T01:48:56;25.87;;;23.20;;
9657;SDS011;4867;48.112;11.622;2023-10-19T01:51:24;25.33;;;22.67;;
9657;SDS011;4867;48.112;11.622;2023-10-19T01:53:54;25.60;;;23.00;;
9657;SDS011;4867;48.112;11.622;2023-10-19T01:56:25;27.67;;;24.43;;
9657;SDS011;4867;48.112;11.622;2023-10-19T01:58:53;25.90;;;23.30;;
9657;SDS011;4867;48.112;11.622;2023-10-19T02:01:21;26.80;;;23.97;;
9657;SDS011;4867;48.112;11.622;2023-10-19T02:03:56;24.23;;;21.73;;
9657;SDS011;4867;48.112;11.622;2023-10-19T02:06:28;24.80;;;22.20;;
9657;SDS011;4867;48.112;11.622;2023-10-19T02:09:05;25.40;;;22.77;;
9657;SDS011;4867;48.112;11.622;2023-10-19T02:11:46;22.87;;;20.57;;
9657;SDS011;4867;48.112;11.622;2023-10-19T02:14:16;23.13;;;20.87;;
9657;SDS011;4867;48.112;11.622;2023-10-19T02:16:47;24.00;;;21.50;;
9657;SDS011;4867;48.112;11.622;2023-10-19T02:19:20;30.20;;;24.87;;
9657;SDS011;4867;48.112;11.622;2023-10-19T02:21:49;25.67;;;22.90;;
9657;SDS011;4867;48.112;11.622;2023-10-19T02:24:19;32.47;;;25.87;;
9657;SDS011;4867;48.112;11.622;2023-10-19T02:26:48;25.23;;;22.77;;
9657;SDS011;4867;48.112;11.622;2023-10-19T02:29:21;23.63;;;21.30;;
9657;SDS011;4867;48.112;11.622;2023-10-19T02:31:49;24.80;;;22.30;;
9657;SDS011;4867;48.112;11.622;2023-10-19T02:34:18;25.50;;;22.73;;
9657;SDS011;4867;48.112;11.622;2023-10-19T02:36:45;23.23;;;20.83;;
9657;SDS011;4867;48.112;11.622;2023-10-19T02:39:14;25.67;;;23.00;;
9657;SDS011;4867;48.112;11.622;2023-10-19T02:41:45;24.27;;;21.77;;
9657;SDS011;4867;48.112;11.622;2023-10-19T02:44:15;22.60;;;20.40;;
9657;SDS011;4867;48.112;11.622;2023-10-19T02:46:45;23.70;;;21.37;;
9657;SDS011;4867;48.112;11.622;2023-10-19T02:49:13;24.83;;;22.17;;
9657;SDS011;4867;48.112;11.622;2023-10-19T02:51:47;24.10;;;21.70;;
9657;SDS011;4867;48.112;11.622;2023-10-19T02:54:16;23.33;;;20.93;;
9657;SDS011;4867;48.112;11.622;2023-10-19T02:56:52;23.80;;;21.33;;
9657;SDS011;4867;48.112;11.622;2023-10-19T02:59:24;23.60;;;21.23;;
9657;SDS011;4867;48.112;11.622;2023-10-19T03:01:54;23.30;;;20.80;;
9657;SDS011;4867;48.112;11.622;2023-10-19T03:04:38;23.33;;;21.03;;
9657;SDS011;4867;48.112;11.622;2023-10-19T03:07:07;23.60;;;21.23;;
9657;SDS011;4867;48.112;11.622;2023-10-19T03:09:35;22.37;;;20.17;;
9657;SDS011;4867;48.112;11.622;2023-10-19T03:12:31;24.20;;;21.77;;
9657;SDS011;4867;48.112;11.622;2023-10-19T03:14:59;24.67;;;22.07;;
9657;SDS011;4867;48.112;11.622;2023-10-19T03:17:27;23.07;;;20.93;;
9657;SDS011;4867;48.112;11.622;2023-10-19T03:19:57;22.93;;;20.70;;
9657;SDS011;4867;48.112;11.622;2023-10-19T03:22:24;24.23;;;21.70;;
9657;SDS011;4867;48.112;11.622;2023-10-19T03:24:54;24.10;;;21.60;;
9657;SDS011;4867;48.112;11.622;2023-10-19T03:27:47;22.80;;;20.40;;
9657;SDS011;4867;48.112;11.622;2023-10-19T03:30:15;23.90;;;21.50;;
9657;SDS011;4867;48.112;11.622;2023-10-19T03:32:46;21.93;;;19.83;;
9657;SDS011;4867;48.112;11.622;2023-10-19T03:35:13;22.43;;;20.23;;
9657;SDS011;4867;48.112;11.622;2023-10-19T03:37:42;21.83;;;19.73;;
9657;SDS011;4867;48.112;11.622;2023-10-19T03:40:10;21.23;;;19.17;;
9657;SDS011;4867;48.112;11.622;2023-10-19T03:42:48;22.50;;;20.30;;
9657;SDS011;4867;48.112;11.622;2023-10-19T03:45:15;21.70;;;19.57;;
9657;SDS011;4867;48.112;11.622;2023-10-19T03:47:42;23.03;;;20.73;;
9657;SDS011;4867;48.112;11.622;2023-10-19T03:50:16;23.53;;;21.10;;
9657;SDS011;4867;48.112;11.622;2023-10-19T03:52:47;23.77;;;21.33;;
9657;SDS011;4867;48.112;11.622;2023-10-19T03:55:15;22.77;;;20.60;;
9657;SDS011;4867;48.112;11.622;2023-10-19T03:57:45;22.13;;;20.07;;
9657;SDS011;4867;48.112;11.622;2023-10-19T04:00:22;24.00;;;21.63;;
9657;SDS011;4867;48.112;11.622;2023-10-19T04:02:54;24.47;;;22.00;;
9657;SDS011;4867;48.112;11.622;2023-10-19T04:05:22;20.03;;;18.17;;
9657;SDS011;4867;48.112;11.622;2023-10-19T04:07:50;22.13;;;19.13;;
9657;SDS011;4867;48.112;11.622;2023-10-19T04:10:21;23.90;;;19.23;;
9657;SDS011;4867;48.112;11.622;2023-10-19T04:13:01;19.10;;;17.30;;
9657;SDS011;4867;48.112;11.622;2023-10-19T04:15:29;20.67;;;18.70;;
9657;SDS011;4867;48.112;11.622;2023-10-19T04:18:02;18.53;;;16.83;;
9657;SDS011;4867;48.112;11.622;2023-10-19T04:20:37;21.17;;;19.07;;
9657;SDS011;4867;48.112;11.622;2023-10-19T04:23:17;19.83;;;17.73;;
9657;SDS011;4867;48.112;11.622;2023-10-19T04:25:45;21.43;;;19.30;;
9657;SDS011;4867;48.112;11.622;2023-10-19T04:28:13;19.63;;;17.63;;
9657;SDS011;4867;48.112;11.622;2023-10-19T04:30:41;21.80;;;19.03;;
9657;SDS011;4867;48.112;11.622;2023-10-19T04:33:09;19.43;;;17.50;;
9657;SDS011;4867;48.112;11.622;2023-10-19T04:35:37;19.57;;;17.70;;
9657;SDS011;4867;48.112;11.622;2023-10-19T04:38:07;22.87;;;19.30;;
9657;SDS011;4867;48.112;11.622;2023-10-19T04:40:35;20.90;;;18.90;;
9657;SDS011;4867;48.112;11.622;2023-10-19T04:43:03;19.47;;;16.90;;
9657;SDS011;4867;48.112;11.622;2023-10-19T04:45:33;18.93;;;17.07;;
9657;SDS011;4867;48.112;11.622;2023-10-19T04:48:00;19.87;;;17.87;;
9657;SDS011;4867;48.112;11.622;2023-10-19T04:50:31;19.27;;;17.47;;
9657;SDS011;4867;48.112;11.622;2023-10-19T04:52:58;17.33;;;15.63;;
9657;SDS011;4867;48.112;11.622;2023-10-19T04:55:25;20.17;;;18.13;;
9657;SDS011;4867;48.112;11.622;2023-10-19T04:57:54;18.07;;;16.07;;
9657;SDS011;4867;48.112;11.622;2023-10-19T05:00:21;16.70;;;15.17;;
9657;SDS011;4867;48.112;11.622;2023-10-19T05:02:51;18.70;;;16.17;;
9657;SDS011;4867;48.112;11.622;2023-10-19T05:05:19;17.07;;;15.47;;
9657;SDS011;4867;48.112;11.622;2023-10-19T05:07:46;17.03;;;15.43;;
9657;SDS011;4867;48.112;11.622;2023-10-19T05:10:14;17.17;;;15.47;;
9657;SDS011;4867;48.112;11.622;2023-10-19T05:12:41;17.13;;;15.33;;
9657;SDS011;4867;48.112;11.622;2023-10-19T05:15:08;16.03;;;14.53;;
9657;SDS011;4867;48.112;11.622;2023-10-19T05:17:36;16.43;;;14.77;;
9657;SDS011;4867;48.112;11.622;2023-10-19T05:20:03;14.87;;;13.40;;
9657;SDS011;4867;48.112;11.622;2023-10-19T05:22:32;15.60;;;13.50;;
9657;SDS011;4867;48.112;11.622;2023-10-19T05:25:00;15.53;;;14.07;;
9657;SDS011;4867;48.112;11.622;2023-10-19T05:27:28;15.43;;;14.00;;
9657;SDS011;4867;48.112;11.622;2023-10-19T05:29:55;14.80;;;13.37;;
9657;SDS011;4867;48.112;11.622;2023-10-19T05:32:23;15.07;;;13.57;;
9657;SDS011;4867;48.112;11.622;2023-10-19T05:34:51;14.10;;;12.77;;
9657;SDS011;4867;48.112;11.622;2023-10-19T05:37:19;15.13;;;13.63;;
9657;SDS011;4867;48.112;11.622;2023-10-19T05:39:46;14.00;;;12.70;;
9657;SDS011;4867;48.112;11.622;2023-10-19T05:42:13;14.40;;;13.00;;
9657;SDS011;4867;48.112;11.622;2023-10-19T05:44:41;14.27;;;12.77;;
9657;SDS011;4867;48.112;11.622;2023-10-19T05:47:08;13.30;;;11.97;;
9657;SDS011;4867;48.112;11.622;2023-10-19T05:49:35;16.03;;;13.40;;
9657;SDS011;4867;48.112;11.622;2023-10-19T05:52:03;14.10;;;12.70;;
9657;SDS011;4867;48.112;11.622;2023-10-19T05:54:30;14.67;;;13.30;;
9657;SDS011;4867;48.112;11.622;2023-10-19T05:56:58;14.17;;;12.77;;
9657;SDS011;4867;48.112;11.622;2023-10-19T05:59:25;13.60;;;12.30;;
9657;SDS011;4867;48.112;11.622;2023-10-19T06:01:53;13.80;;;12.50;;
9657;SDS011;4867;48.112;11.622;2023-10-19T06:04:20;14.77;;;13.30;;
9657;SDS011;4867;48.112;11.622;2023-10-19T06:06:48;15.37;;;13.77;;
9657;SDS011;4867;48.112;11.622;2023-10-19T06:09:16;15.50;;;13.93;;
9657;SDS011;4867;48.112;11.622;2023-10-19T06:11:44;14.30;;;12.87;;
9657;SDS011;4867;48.112;11.622;2023-10-19T06:14:12;12.00;;;10.90;;
9657;SDS011;4867;48.112;11.622;2023-10-19T06:16:40;12.73;;;11.47;;
9657;SDS011;4867;48.112;11.622;2023-10-19T06:19:08;13.20;;;11.83;;
9657;SDS011;4867;48.112;11.622;2023-10-19T06:21:36;12.87;;;11.70;;
9657;SDS011;4867;48.112;11.622;2023-10-19T06:24:04;12.90;;;11.60;;
9657;SDS011;4867;48.112;11.622;2023-10-19T06:26:31;11.07;;;9.97;;
9657;SDS011;4867;48.112;11.622;2023-10-19T06:28:58;11.47;;;10.37;;
9657;SDS011;4867;48.112;11.622;2023-10-19T06:31:26;12.43;;;11.23;;
9657;SDS011;4867;48.112;11.622;2023-10-19T06:33:56;10.60;;;9.67;;
9657;SDS011;4867;48.112;11.622;2023-10-19T06:36:28;11.00;;;9.90;;
9657;SDS011;4867;48.112;11.622;2023-10-19T06:38:58;11.03;;;10.13;;
9657;SDS011;4867;48.112;11.622;2023-10-19T06:41:28;11.27;;;10.00;;
9657;SDS011;4867;48.112;11.622;2023-10-19T06:43:55;12.23;;;10.40;;
9657;SDS011;4867;48.112;11.622;2023-10-19T06:46:22;11.27;;;10.23;;
9657;SDS011;4867;48.112;11.622;2023-10-19T06:48:49;12.20;;;11.10;;
9657;SDS011;4867;48.112;11.622;2023-10-19T06:51:18;11.67;;;10.57;;
9657;SDS011;4867;48.112;11.622;2023-10-19T06:53:45;11.87;;;10.87;;
9657;SDS011;4867;48.112;11.622;2023-10-19T06:56:12;12.33;;;11.23;;
9657;SDS011;4867;48.112;11.622;2023-10-19T06:58:39;12.07;;;10.60;;
9657;SDS011;4867;48.112;11.622;2023-10-19T07:01:07;11.53;;;10.53;;
9657;SDS011;4867;48.112;11.622;2023-10-19T07:03:36;11.53;;;10.43;;
9657;SDS011;4867;48.112;11.622;2023-10-19T07:06:04;11.20;;;9.90;;
9657;SDS011;4867;48.112;11.622;2023-10-19T07:08:39;10.70;;;9.70;;
9657;SDS011;4867;48.112;11.622;2023-10-19T07:11:07;11.17;;;9.47;;
9657;SDS011;4867;48.112;11.622;2023-10-19T07:13:36;10.70;;;9.60;;
9657;SDS011;4867;48.112;11.622;2023-10-19T07:16:03;10.37;;;9.37;;
9657;SDS011;4867;48.112;11.622;2023-10-19T07:18:31;9.23;;;8.27;;
9657;SDS011;4867;48.112;11.622;2023-10-19T07:20:58;9.40;;;8.50;;
9657;SDS011;4867;48.112;11.622;2023-10-19T07:23:32;10.57;;;8.27;;
9657;SDS011;4867;48.112;11.622;2023-10-19T07:26:00;9.23;;;8.33;;
9657;SDS011;4867;48.112;11.622;2023-10-19T07:28:27;9.37;;;8.47;;
9657;SDS011;4867;48.112;11.622;2023-10-19T07:30:55;9.20;;;8.30;;
9657;SDS011;4867;48.112;11.622;2023-10-19T07:33:23;9.33;;;8.33;;
9657;SDS011;4867;48.112;11.622;2023-10-19T07:35:51;9.30;;;8.40;;
9657;SDS011;4867;48.112;11.622;2023-10-19T07:38:22;8.73;;;7.83;;
9657;SDS011;4867;48.112;11.622;2023-10-19T07:40:50;8.53;;;7.67;;
9657;SDS011;4867;48.112;11.622;2023-10-19T07:43:21;7.37;;;6.67;;
9657;SDS011;4867;48.112;11.622;2023-10-19T07:45:49;8.40;;;7.13;;
9657;SDS011;4867;48.112;11.622;2023-10-19T07:48:17;8.67;;;6.70;;
9657;SDS011;4867;48.112;11.622;2023-10-19T07:50:44;8.40;;;6.83;;
9657;SDS011;4867;48.112;11.622;2023-10-19T07:53:12;7.77;;;6.97;;
9657;SDS011;4867;48.112;11.622;2023-10-19T07:55:39;8.57;;;7.37;;
9657;SDS011;4867;48.112;11.622;2023-10-19T07:58:07;8.17;;;7.03;;
9657;SDS011;4867;48.112;11.622;2023-10-19T08:00:34;7.83;;;6.93;;
9657;SDS011;4867;48.112;11.622;2023-10-19T08:03:02;7.63;;;6.83;;
9657;SDS011;4867;48.112;11.622;2023-10-19T08:05:31;7.87;;;6.73;;
9657;SDS011;4867;48.112;11.622;2023-10-19T08:08:01;7.60;;;6.30;;
9657;SDS011;4867;48.112;11.622;2023-10-19T08:10:31;8.90;;;6.53;;
9657;SDS011;4867;48.112;11.622;2023-10-19T08:12:59;8.17;;;5.87;;
9657;SDS011;4867;48.112;11.622;2023-10-19T08:15:26;9.33;;;6.23;;
9657;SDS011;4867;48.112;11.622;2023-10-19T08:17:57;9.03;;;6.60;;
9657;SDS011;4867;48.112;11.622;2023-10-19T08:20:24;8.20;;;6.13;;
9657;SDS011;4867;48.112;11.622;2023-10-19T08:22:57;9.10;;;5.67;;
9657;SDS011;4867;48.112;11.622;2023-10-19T08:25:28;7.80;;;5.70;;
9657;SDS011;4867;48.112;11.622;2023-10-19T08:28:16;8.30;;;5.77;;
9657;SDS011;4867;48.112;11.622;2023-10-19T08:30:44;6.77;;;5.33;;
9657;SDS011;4867;48.112;11.622;2023-10-19T08:33:23;9.03;;;5.67;;
9657;SDS011;4867;48.112;11.622;2023-10-19T08:35:53;10.33;;;5.73;;
9657;SDS011;4867;48.112;11.622;2023-10-19T08:38:21;8.60;;;5.67;;
9657;SDS011;4867;48.112;11.622;2023-10-19T08:40:49;7.20;;;5.40;;
9657;SDS011;4867;48.112;11.622;2023-10-19T08:43:18;6.87;;;4.80;;
9657;SDS011;4867;48.112;11.622;2023-10-19T08:45:45;8.00;;;6.03;;
9657;SDS011;4867;48.112;11.622;2023-10-19T08:48:13;10.03;;;6.03;;
9657;SDS011;4867;48.112;11.622;2023-10-19T08:50:41;10.77;;;6.50;;
9657;SDS011;4867;48.112;11.622;2023-10-19T08:53:08;40.20;;;10.90;;
9657;SDS011;4867;48.112;11.622;2023-10-19T08:55:37;22.37;;;9.17;;
9657;SDS011;4867;48.112;11.622;2023-10-19T08:58:15;44.90;;;17.57;;
9657;SDS011;4867;48.112;11.622;2023-10-19T09:00:48;13.37;;;7.50;;
9657;SDS011;4867;48.112;11.622;2023-10-19T09:03:24;13.60;;;6.33;;
9657;SDS011;4867;48.112;11.622;2023-10-19T09:05:53;10.07;;;5.50;;
9657;SDS011;4867;48.112;11.622;2023-10-19T09:08:21;7.33;;;5.83;;
9657;SDS011;4867;48.112;11.622;2023-10-19T09:10:50;9.60;;;6.07;;
9657;SDS011;4867;48.112;11.622;2023-10-19T09:13:21;7.67;;;5.53;;
9657;SDS011;4867;48.112;11.622;2023-10-19T09:15:50;10.07;;;6.20;;
9657;SDS011;4867;48.112;11.622;2023-10-19T09:18:23;12.37;;;6.47;;
9657;SDS011;4867;48.112;11.622;2023-10-19T09:20:55;9.73;;;6.57;;
9657;SDS011;4867;48.112;11.622;2023-10-19T09:23:32;11.63;;;6.67;;
9657;SDS011;4867;48.112;11.622;2023-10-19T09:26:00;11.23;;;7.47;;
9657;SDS011;4867;48.112;11.622;2023-10-19T09:28:31;12.33;;;7.10;;
9657;SDS011;4867;48.112;11.622;2023-10-19T09:31:01;11.23;;;7.33;;
9657;SDS011;4867;48.112;11.622;2023-10-19T09:33:33;9.23;;;7.63;;
9657;SDS011;4867;48.112;11.622;2023-10-19T09:36:01;11.37;;;8.30;;
9657;SDS011;4867;48.112;11.622;2023-10-19T09:38:32;12.77;;;8.83;;
9657;SDS011;4867;48.112;11.622;2023-10-19T09:41:00;12.67;;;8.17;;
9657;SDS011;4867;48.112;11.622;2023-10-19T09:43:34;12.33;;;8.23;;
9657;SDS011;4867;48.112;11.622;2023-10-19T09:46:20;9.93;;;8.20;;
9657;SDS011;4867;48.112;11.622;2023-10-19T09:48:53;12.23;;;7.13;;
9657;SDS011;4867;48.112;11.622;2023-10-19T09:51:20;11.10;;;9.20;;
9657;SDS011;4867;48.112;11.622;2023-10-19T09:53:57;10.80;;;9.07;;
9657;SDS011;4867;48.112;11.622;2023-10-19T09:56:46;15.47;;;8.33;;
9657;SDS011;4867;48.112;11.622;2023-10-19T09:59:22;11.07;;;7.87;;
9657;SDS011;4867;48.112;11.622;2023-10-19T10:02:12;11.73;;;7.93;;
9657;SDS011;4867;48.112;11.622;2023-10-19T10:04:41;10.00;;;7.20;;
9657;SDS011;4867;48.112;11.622;2023-10-19T10:07:12;10.90;;;7.80;;
9657;SDS011;4867;48.112;11.622;2023-10-19T10:09:46;13.37;;;9.10;;
9657;SDS011;4867;48.112;11.622;2023-10-19T10:12:16;13.57;;;10.23;;
9657;SDS011;4867;48.112;11.622;2023-10-19T10:15:04;10.03;;;7.97;;
9657;SDS011;4867;48.112;11.622;2023-10-19T10:17:36;44.33;;;32.57;;
9657;SDS011;4867;48.112;11.622;2023-10-19T10:22:41;13.90;;;12.07;;
9657;SDS011;4867;48.112;11.622;2023-10-19T10:25:30;12.37;;;8.70;;
9657;SDS011;4867;48.112;11.622;2023-10-19T10:27:58;16.10;;;10.37;;
9657;SDS011;4867;48.112;11.622;2023-10-19T10:30:25;14.27;;;12.20;;
9657;SDS011;4867;48.112;11.622;2023-10-19T10:32:53;17.83;;;12.90;;
9657;SDS011;4867;48.112;11.622;2023-10-19T10:38:09;20.50;;;14.27;;
9657;SDS011;4867;48.112;11.622;2023-10-19T10:40:45;18.53;;;11.80;;
9657;SDS011;4867;48.112;11.622;2023-10-19T10:43:18;17.27;;;11.87;;
9657;SDS011;4867;48.112;11.622;2023-10-19T10:45:48;18.73;;;13.80;;
9657;SDS011;4867;48.112;11.622;2023-10-19T10:48:16;12.30;;;9.50;;
9657;SDS011;4867;48.112;11.622;2023-10-19T10:50:46;11.50;;;8.17;;
9657;SDS011;4867;48.112;11.622;2023-10-19T10:53:14;16.57;;;9.37;;
9657;SDS011;4867;48.112;11.622;2023-10-19T10:55:44;13.53;;;8.70;;
9657;SDS011;4867;48.112;11.622;2023-10-19T10:58:15;10.03;;;7.80;;
9657;SDS011;4867;48.112;11.622;2023-10-19T11:00:46;15.07;;;8.30;;
9657;SDS011;4867;48.112;11.622;2023-10-19T11:03:15;8.90;;;7.70;;
9657;SDS011;4867;48.112;11.622;2023-10-19T11:05:43;12.87;;;7.67;;
9657;SDS011;4867;48.112;11.622;2023-10-19T11:08:16;10.10;;;7.40;;
9657;SDS011;4867;48.112;11.622;2023-10-19T11:10:45;9.23;;;7.63;;
9657;SDS011;4867;48.112;11.622;2023-10-19T11:13:14;8.53;;;7.23;;
9657;SDS011;4867;48.112;11.622;2023-10-19T11:15:50;13.17;;;8.27;;
9657;SDS011;4867;48.112;11.622;2023-10-19T11:18:27;10.00;;;6.70;;
9657;SDS011;4867;48.112;11.622;2023-10-19T11:21:10;9.00;;;6.87;;
9657;SDS011;4867;48.112;11.622;2023-10-19T11:23:39;9.07;;;6.37;;
9657;SDS011;4867;48.112;11.622;2023-10-19T11:26:08;9.93;;;5.77;;
9657;SDS011;4867;48.112;11.622;2023-10-19T11:28:40;8.13;;;5.03;;
9657;SDS011;4867;48.112;11.622;2023-10-19T11:31:17;8.40;;;5.53;;
9657;SDS011;4867;48.112;11.622;2023-10-19T11:33:46;9.43;;;5.63;;
9657;SDS011;4867;48.112;11.622;2023-10-19T11:36:16;7.80;;;5.30;;
9657;SDS011;4867;48.112;11.622;2023-10-19T11:38:45;7.03;;;5.43;;
9657;SDS011;4867;48.112;11.622;2023-10-19T11:41:14;8.57;;;5.30;;
9657;SDS011;4867;48.112;11.622;2023-10-19T11:43:43;8.10;;;5.67;;
9657;SDS011;4867;48.112;11.622;2023-10-19T11:46:12;11.93;;;7.03;;
9657;SDS011;4867;48.112;11.622;2023-10-19T11:48:41;7.57;;;5.57;;
9657;SDS011;4867;48.112;11.622;2023-10-19T11:51:12;7.53;;;5.20;;
9657;SDS011;4867;48.112;11.622;2023-10-19T11:53:40;9.20;;;6.27;;
9657;SDS011;4867;48.112;11.622;2023-10-19T11:56:10;9.13;;;5.80;;
9657;SDS011;4867;48.112;11.622;2023-10-19T11:58:43;11.73;;;7.50;;
9657;SDS011;4867;48.112;11.622;2023-10-19T12:01:13;7.47;;;5.30;;
9657;SDS011;4867;48.112;11.622;2023-10-19T12:03:44;6.53;;;5.33;;
9657;SDS011;4867;48.112;11.622;2023-10-19T12:06:15;5.90;;;5.30;;
9657;SDS011;4867;48.112;11.622;2023-10-19T12:08:46;8.33;;;5.37;;
9657;SDS011;4867;48.112;11.622;2023-10-19T12:11:14;6.70;;;4.47;;
9657;SDS011;4867;48.112;11.622;2023-10-19T12:13:43;6.73;;;4.80;;
9657;SDS011;4867;48.112;11.622;2023-10-19T12:16:11;6.93;;;4.50;;
9657;SDS011;4867;48.112;11.622;2023-10-19T12:18:44;5.73;;;4.30;;
9657;SDS011;4867;48.112;11.622;2023-10-19T12:21:13;5.13;;;4.20;;
9657;SDS011;4867;48.112;11.622;2023-10-19T12:23:41;5.97;;;4.20;;
9657;SDS011;4867;48.112;11.622;2023-10-19T12:26:17;7.10;;;4.10;;
9657;SDS011;4867;48.112;11.622;2023-10-19T12:28:46;6.87;;;3.90;;
9657;SDS011;4867;48.112;11.622;2023-10-19T12:31:16;7.90;;;3.83;;
9657;SDS011;4867;48.112;11.622;2023-10-19T12:33:46;4.57;;;3.40;;
9657;SDS011;4867;48.112;11.622;2023-10-19T12:36:13;3.77;;;3.20;;
9657;SDS011;4867;48.112;11.622;2023-10-19T12:38:52;4.53;;;3.10;;
9657;SDS011;4867;48.112;11.622;2023-10-19T12:41:21;5.20;;;3.40;;
9657;SDS011;4867;48.112;11.622;2023-10-19T12:43:49;4.93;;;3.40;;
9657;SDS011;4867;48.112;11.622;2023-10-19T12:46:24;6.03;;;3.40;;
9657;SDS011;4867;48.112;11.622;2023-10-19T12:48:56;4.97;;;3.20;;
9657;SDS011;4867;48.112;11.622;2023-10-19T12:51:24;3.87;;;3.13;;
9657;SDS011;4867;48.112;11.622;2023-10-19T12:53:52;4.77;;;2.83;;
9657;SDS011;4867;48.112;11.622;2023-10-19T12:56:20;4.90;;;2.93;;
9657;SDS011;4867;48.112;11.622;2023-10-19T12:58:51;3.87;;;2.70;;
9657;SDS011;4867;48.112;11.622;2023-10-19T13:01:18;4.30;;;2.47;;
9657;SDS011;4867;48.112;11.622;2023-10-19T13:03:46;3.27;;;2.90;;
9657;SDS011;4867;48.112;11.622;2023-10-19T13:06:16;4.57;;;2.80;;
9657;SDS011;4867;48.112;11.622;2023-10-19T13:08:46;3.63;;;2.60;;
9657;SDS011;4867;48.112;11.622;2023-10-19T13:11:13;4.07;;;2.83;;
9657;SDS011;4867;48.112;11.622;2023-10-19T13:13:45;2.90;;;2.60;;
9657;SDS011;4867;48.112;11.622;2023-10-19T13:16:14;3.37;;;2.90;;
9657;SDS011;4867;48.112;11.622;2023-10-19T13:18:43;4.13;;;3.27;;
9657;SDS011;4867;48.112;11.622;2023-10-19T13:21:10;3.00;;;2.70;;
9657;SDS011;4867;48.112;11.622;2023-10-19T13:23:43;5.43;;;3.30;;
9657;SDS011;4867;48.112;11.622;2023-10-19T13:26:11;4.23;;;3.00;;
9657;SDS011;4867;48.112;11.622;2023-10-19T13:28:44;3.77;;;2.70;;
9657;SDS011;4867;48.112;11.622;2023-10-19T13:31:13;3.67;;;2.93;;
9657;SDS011;4867;48.112;11.622;2023-10-19T13:33:41;3.57;;;3.17;;
9657;SDS011;4867;48.112;11.622;2023-10-19T13:36:08;5.30;;;2.87;;
9657;SDS011;4867;48.112;11.622;2023-10-19T13:38:35;3.97;;;2.97;;
9657;SDS011;4867;48.112;11.622;2023-10-19T13:41:03;5.70;;;3.30;;
9657;SDS011;4867;48.112;11.622;2023-10-19T13:43:40;3.73;;;3.13;;
9657;SDS011;4867;48.112;11.622;2023-10-19T13:46:09;4.00;;;3.60;;
9657;SDS011;4867;48.112;11.622;2023-10-19T13:48:36;4.53;;;3.57;;
9657;SDS011;4867;48.112;11.622;2023-10-19T13:51:06;4.47;;;4.03;;
9657;SDS011;4867;48.112;11.622;2023-10-19T13:53:41;4.50;;;3.40;;
9657;SDS011;4867;48.112;11.622;2023-10-19T13:56:08;5.27;;;3.70;;
9657;SDS011;4867;48.112;11.622;2023-10-19T13:58:37;4.67;;;3.77;;
9657;SDS011;4867;48.112;11.622;2023-10-19T14:01:08;6.47;;;3.57;;
9657;SDS011;4867;48.112;11.622;2023-10-19T14:03:41;7.83;;;3.80;;
9657;SDS011;4867;48.112;11.622;2023-10-19T14:06:12;4.07;;;3.47;;
9657;SDS011;4867;48.112;11.622;2023-10-19T14:08:40;5.90;;;4.10;;
9657;SDS011;4867;48.112;11.622;2023-10-19T14:11:07;6.07;;;4.17;;
9657;SDS011;4867;48.112;11.622;2023-10-19T14:13:35;5.80;;;3.90;;
9657;SDS011;4867;48.112;11.622;2023-10-19T14:16:06;6.63;;;4.13;;
9657;SDS011;4867;48.112;11.622;2023-10-19T14:18:35;15.40;;;5.20;;
9657;SDS011;4867;48.112;11.622;2023-10-19T14:21:16;9.87;;;4.47;;
9657;SDS011;4867;48.112;11.622;2023-10-19T14:23:45;7.87;;;4.50;;
9657;SDS011;4867;48.112;11.622;2023-10-19T14:26:13;8.97;;;5.00;;
9657;SDS011;4867;48.112;11.622;2023-10-19T14:28:41;7.77;;;5.33;;
9657;SDS011;4867;48.112;11.622;2023-10-19T14:31:09;8.43;;;5.53;;
9657;SDS011;4867;48.112;11.622;2023-10-19T14:33:37;7.03;;;5.80;;
9657;SDS011;4867;48.112;11.622;2023-10-19T14:36:05;9.07;;;6.83;;
9657;SDS011;4867;48.112;11.622;2023-10-19T14:38:33;11.53;;;8.40;;
9657;SDS011;4867;48.112;11.622;2023-10-19T14:41:00;11.20;;;9.20;;
9657;SDS011;4867;48.112;11.622;2023-10-19T14:43:27;10.77;;;9.60;;
9657;SDS011;4867;48.112;11.622;2023-10-19T14:45:56;11.13;;;9.63;;
9657;SDS011;4867;48.112;11.622;2023-10-19T14:48:24;11.20;;;10.20;;
9657;SDS011;4867;48.112;11.622;2023-10-19T14:50:51;10.87;;;9.77;;
9657;SDS011;4867;48.112;11.622;2023-10-19T14:53:21;13.60;;;9.37;;
9657;SDS011;4867;48.112;11.622;2023-10-19T14:55:48;11.10;;;10.10;;
9657;SDS011;4867;48.112;11.622;2023-10-19T14:58:16;11.23;;;10.23;;
9657;SDS011;4867;48.112;11.622;2023-10-19T15:00:44;15.03;;;10.83;;
9657;SDS011;4867;48.112;11.622;2023-10-19T15:03:21;12.50;;;11.13;;
9657;SDS011;4867;48.112;11.622;2023-10-19T15:05:50;13.63;;;11.80;;
9657;SDS011;4867;48.112;11.622;2023-10-19T15:08:19;13.20;;;11.90;;
9657;SDS011;4867;48.112;11.622;2023-10-19T15:10:47;16.90;;;12.60;;
9657;SDS011;4867;48.112;11.622;2023-10-19T15:13:14;13.57;;;11.83;;
9657;SDS011;4867;48.112;11.622;2023-10-19T15:15:42;35.77;;;14.10;;